sensor_id;sensor_type;location;lat;lon;timestamp;P1;durP1;ratioP1;P2;durP2;ratioP2
75160;SDS011;67232;50.096;8.716;2024-03-02T00:01:54;1.85;;;0.00;;
75160;SDS011;67232;50.096;8.716;2024-03-02T00:04:20;2.97;;;0.00;;
75160;SDS011;67232;50.096;8.716;2024-03-02T00:06:46;1.38;;;0.00;;
75160;SDS011;67232;50.096;8.716;2024-03-02T00:09:15;1.77;;;0.00;;
75160;SDS011;67232;50.096;8.716;2024-03-02T00:11:41;2.10;;;0.00;;
75160;SDS011;67232;50.096;8.716;2024-03-02T00:14:07;2.75;;;0.00;;
75160;SDS011;67232;50.096;8.716;2024-03-02T00:16:33;0.93;;;0.00;;
75160;SDS011;67232;50.096;8.716;2024-03-02T00:19:02;2.15;;;0.00;;
75160;SDS011;67232;50.096;8.716;2024-03-02T00:21:30;1.80;;;0.00;;
75160;SDS011;67232;50.096;8.716;2024-03-02T00:26:22;2.15;;;0.00;;
75160;SDS011;67232;50.096;8.716;2024-03-02T00:28:48;1.58;;;0.00;;
75160;SDS011;67232;50.096;8.716;2024-03-02T00:31:19;3.53;;;0.00;;
75160;SDS011;67232;50.096;8.716;2024-03-02T00:33:46;2.47;;;0.00;;
75160;SDS011;67232;50.096;8.716;2024-03-02T00:36:13;3.33;;;0.00;;
75160;SDS011;67232;50.096;8.716;2024-03-02T00:41:15;1.77;;;0.00;;
75160;SDS011;67232;50.096;8.716;2024-03-02T00:46:15;2.58;;;0.00;;
75160;SDS011;67232;50.096;8.716;2024-03-02T00:48:47;2.33;;;0.03;;
75160;SDS011;67232;50.096;8.716;2024-03-02T00:53:52;4.43;;;0.00;;
75160;SDS011;67232;50.096;8.716;2024-03-02T00:56:21;2.42;;;0.00;;
75160;SDS011;67232;50.096;8.716;2024-03-02T00:58:47;5.35;;;0.05;;
75160;SDS011;67232;50.096;8.716;2024-03-02T01:01:13;2.17;;;0.00;;
75160;SDS011;67232;50.096;8.716;2024-03-02T01:03:44;2.03;;;0.00;;
75160;SDS011;67232;50.096;8.716;2024-03-02T01:06:10;2.65;;;0.00;;
75160;SDS011;67232;50.096;8.716;2024-03-02T01:08:36;3.25;;;0.00;;
75160;SDS011;67232;50.096;8.716;2024-03-02T01:11:02;2.40;;;0.00;;
75160;SDS011;67232;50.096;8.716;2024-03-02T01:15:55;3.72;;;0.00;;
75160;SDS011;67232;50.096;8.716;2024-03-02T01:18:21;2.55;;;0.10;;
75160;SDS011;67232;50.096;8.716;2024-03-02T01:20:47;5.90;;;0.10;;
75160;SDS011;67232;50.096;8.716;2024-03-02T01:23:16;3.55;;;0.05;;
75160;SDS011;67232;50.096;8.716;2024-03-02T01:25:42;3.53;;;0.10;;
75160;SDS011;67232;50.096;8.716;2024-03-02T01:28:08;4.47;;;0.10;;
75160;SDS011;67232;50.096;8.716;2024-03-02T01:30:34;4.93;;;0.10;;
75160;SDS011;67232;50.096;8.716;2024-03-02T01:33:02;5.40;;;0.08;;
75160;SDS011;67232;50.096;8.716;2024-03-02T01:35:30;3.92;;;0.00;;
75160;SDS011;67232;50.096;8.716;2024-03-02T01:37:56;3.30;;;0.00;;
75160;SDS011;67232;50.096;8.716;2024-03-02T01:40:22;4.53;;;0.00;;
75160;SDS011;67232;50.096;8.716;2024-03-02T01:42:53;2.47;;;0.00;;
75160;SDS011;67232;50.096;8.716;2024-03-02T01:45:20;3.75;;;0.00;;
75160;SDS011;67232;50.096;8.716;2024-03-02T01:47:47;3.70;;;0.00;;
75160;SDS011;67232;50.096;8.716;2024-03-02T01:50:13;2.85;;;0.00;;
75160;SDS011;67232;50.096;8.716;2024-03-02T01:55:05;2.60;;;0.00;;
75160;SDS011;67232;50.096;8.716;2024-03-02T01:57:32;5.22;;;0.10;;
75160;SDS011;67232;50.096;8.716;2024-03-02T01:59:58;4.70;;;0.03;;
75160;SDS011;67232;50.096;8.716;2024-03-02T02:02:24;3.75;;;0.00;;
75160;SDS011;67232;50.096;8.716;2024-03-02T02:04:53;3.65;;;0.10;;
75160;SDS011;67232;50.096;8.716;2024-03-02T02:07:21;4.22;;;0.00;;
75160;SDS011;67232;50.096;8.716;2024-03-02T02:09:47;3.58;;;0.10;;
75160;SDS011;67232;50.096;8.716;2024-03-02T02:12:13;3.63;;;0.00;;
75160;SDS011;67232;50.096;8.716;2024-03-02T02:14:46;2.33;;;0.10;;
75160;SDS011;67232;50.096;8.716;2024-03-02T02:17:17;2.20;;;0.00;;
75160;SDS011;67232;50.096;8.716;2024-03-02T02:19:43;2.10;;;0.08;;
75160;SDS011;67232;50.096;8.716;2024-03-02T02:22:09;3.75;;;0.00;;
75160;SDS011;67232;50.096;8.716;2024-03-02T02:24:35;3.28;;;0.08;;
75160;SDS011;67232;50.096;8.716;2024-03-02T02:27:01;1.42;;;0.00;;
75160;SDS011;67232;50.096;8.716;2024-03-02T02:29:27;3.58;;;0.05;;
75160;SDS011;67232;50.096;8.716;2024-03-02T02:31:53;2.75;;;0.00;;
75160;SDS011;67232;50.096;8.716;2024-03-02T02:34:19;2.72;;;0.00;;
75160;SDS011;67232;50.096;8.716;2024-03-02T02:36:45;5.53;;;0.20;;
75160;SDS011;67232;50.096;8.716;2024-03-02T02:39:13;3.33;;;0.00;;
75160;SDS011;67232;50.096;8.716;2024-03-02T02:41:39;4.60;;;0.10;;
75160;SDS011;67232;50.096;8.716;2024-03-02T02:44:07;4.25;;;0.00;;
75160;SDS011;67232;50.096;8.716;2024-03-02T02:46:37;5.05;;;0.00;;
75160;SDS011;67232;50.096;8.716;2024-03-02T02:49:03;4.93;;;0.10;;
75160;SDS011;67232;50.096;8.716;2024-03-02T02:51:29;2.45;;;0.00;;
75160;SDS011;67232;50.096;8.716;2024-03-02T02:53:55;5.22;;;0.10;;
75160;SDS011;67232;50.096;8.716;2024-03-02T02:56:23;1.95;;;0.00;;
75160;SDS011;67232;50.096;8.716;2024-03-02T02:58:49;3.72;;;0.20;;
75160;SDS011;67232;50.096;8.716;2024-03-02T03:01:16;2.75;;;0.00;;
75160;SDS011;67232;50.096;8.716;2024-03-02T03:03:43;3.22;;;0.00;;
75160;SDS011;67232;50.096;8.716;2024-03-02T03:06:11;6.55;;;0.03;;
75160;SDS011;67232;50.096;8.716;2024-03-02T03:08:37;3.05;;;0.00;;
75160;SDS011;67232;50.096;8.716;2024-03-02T03:11:05;2.72;;;0.00;;
75160;SDS011;67232;50.096;8.716;2024-03-02T03:13:31;4.68;;;0.10;;
75160;SDS011;67232;50.096;8.716;2024-03-02T03:15:58;2.85;;;0.00;;
75160;SDS011;67232;50.096;8.716;2024-03-02T03:18:23;3.53;;;0.00;;
75160;SDS011;67232;50.096;8.716;2024-03-02T03:20:49;3.30;;;0.00;;
75160;SDS011;67232;50.096;8.716;2024-03-02T03:23:16;3.22;;;0.00;;
75160;SDS011;67232;50.096;8.716;2024-03-02T03:25:42;3.88;;;0.00;;
75160;SDS011;67232;50.096;8.716;2024-03-02T03:28:08;2.97;;;0.00;;
75160;SDS011;67232;50.096;8.716;2024-03-02T03:30:37;3.30;;;0.10;;
75160;SDS011;67232;50.096;8.716;2024-03-02T03:33:04;3.42;;;0.10;;
75160;SDS011;67232;50.096;8.716;2024-03-02T03:35:33;2.55;;;0.00;;
75160;SDS011;67232;50.096;8.716;2024-03-02T03:38:04;2.65;;;0.00;;
75160;SDS011;67232;50.096;8.716;2024-03-02T03:40:33;3.92;;;0.00;;
75160;SDS011;67232;50.096;8.716;2024-03-02T03:42:59;3.65;;;0.03;;
75160;SDS011;67232;50.096;8.716;2024-03-02T03:45:25;3.47;;;0.00;;
75160;SDS011;67232;50.096;8.716;2024-03-02T03:50:17;2.92;;;0.00;;
75160;SDS011;67232;50.096;8.716;2024-03-02T03:52:44;2.65;;;0.10;;
75160;SDS011;67232;50.096;8.716;2024-03-02T03:55:10;4.97;;;0.00;;
75160;SDS011;67232;50.096;8.716;2024-03-02T03:57:36;3.28;;;0.00;;
75160;SDS011;67232;50.096;8.716;2024-03-02T04:00:05;4.63;;;0.20;;
75160;SDS011;67232;50.096;8.716;2024-03-02T04:02:34;3.92;;;0.00;;
75160;SDS011;67232;50.096;8.716;2024-03-02T04:05:02;5.85;;;0.22;;
75160;SDS011;67232;50.096;8.716;2024-03-02T04:07:34;3.42;;;0.00;;
75160;SDS011;67232;50.096;8.716;2024-03-02T04:10:05;4.47;;;0.00;;
75160;SDS011;67232;50.096;8.716;2024-03-02T04:12:33;5.07;;;0.10;;
75160;SDS011;67232;50.096;8.716;2024-03-02T04:15:01;3.63;;;0.00;;
75160;SDS011;67232;50.096;8.716;2024-03-02T04:17:28;2.75;;;0.10;;
75160;SDS011;67232;50.096;8.716;2024-03-02T04:19:54;3.28;;;0.25;;
75160;SDS011;67232;50.096;8.716;2024-03-02T04:22:20;2.72;;;0.00;;
75160;SDS011;67232;50.096;8.716;2024-03-02T04:24:46;3.10;;;0.13;;
75160;SDS011;67232;50.096;8.716;2024-03-02T04:27:12;4.97;;;0.20;;
75160;SDS011;67232;50.096;8.716;2024-03-02T04:29:38;5.07;;;0.10;;
75160;SDS011;67232;50.096;8.716;2024-03-02T04:32:04;4.60;;;0.00;;
75160;SDS011;67232;50.096;8.716;2024-03-02T04:34:30;4.75;;;0.10;;
75160;SDS011;67232;50.096;8.716;2024-03-02T04:36:56;2.58;;;0.00;;
75160;SDS011;67232;50.096;8.716;2024-03-02T04:39:22;3.58;;;0.22;;
75160;SDS011;67232;50.096;8.716;2024-03-02T04:41:52;5.00;;;0.35;;
75160;SDS011;67232;50.096;8.716;2024-03-02T04:44:18;3.97;;;0.10;;
75160;SDS011;67232;50.096;8.716;2024-03-02T04:46:46;4.50;;;0.28;;
75160;SDS011;67232;50.096;8.716;2024-03-02T04:49:16;4.43;;;0.13;;
75160;SDS011;67232;50.096;8.716;2024-03-02T04:51:42;4.30;;;0.20;;
75160;SDS011;67232;50.096;8.716;2024-03-02T04:54:08;3.60;;;0.10;;
75160;SDS011;67232;50.096;8.716;2024-03-02T04:56:37;4.38;;;0.10;;
75160;SDS011;67232;50.096;8.716;2024-03-02T04:59:09;4.95;;;0.10;;
75160;SDS011;67232;50.096;8.716;2024-03-02T05:01:38;3.58;;;0.10;;
75160;SDS011;67232;50.096;8.716;2024-03-02T05:04:04;4.00;;;0.03;;
75160;SDS011;67232;50.096;8.716;2024-03-02T05:06:30;4.55;;;0.20;;
75160;SDS011;67232;50.096;8.716;2024-03-02T05:09:00;2.88;;;0.08;;
75160;SDS011;67232;50.096;8.716;2024-03-02T05:11:26;4.45;;;0.10;;
75160;SDS011;67232;50.096;8.716;2024-03-02T05:14:18;4.28;;;0.13;;
75160;SDS011;67232;50.096;8.716;2024-03-02T05:16:44;5.28;;;0.20;;
75160;SDS011;67232;50.096;8.716;2024-03-02T05:19:10;2.92;;;0.00;;
75160;SDS011;67232;50.096;8.716;2024-03-02T05:21:36;4.68;;;0.13;;
75160;SDS011;67232;50.096;8.716;2024-03-02T05:24:01;3.63;;;0.13;;
75160;SDS011;67232;50.096;8.716;2024-03-02T05:26:27;2.90;;;0.20;;
75160;SDS011;67232;50.096;8.716;2024-03-02T05:28:56;5.03;;;0.13;;
75160;SDS011;67232;50.096;8.716;2024-03-02T05:31:22;5.13;;;0.10;;
75160;SDS011;67232;50.096;8.716;2024-03-02T05:33:48;3.20;;;0.10;;
75160;SDS011;67232;50.096;8.716;2024-03-02T05:36:13;3.85;;;0.10;;
75160;SDS011;67232;50.096;8.716;2024-03-02T05:38:39;4.80;;;0.10;;
75160;SDS011;67232;50.096;8.716;2024-03-02T05:41:06;4.00;;;0.30;;
75160;SDS011;67232;50.096;8.716;2024-03-02T05:43:34;3.42;;;0.10;;
75160;SDS011;67232;50.096;8.716;2024-03-02T05:46:01;4.32;;;0.20;;
75160;SDS011;67232;50.096;8.716;2024-03-02T05:48:27;1.77;;;0.03;;
75160;SDS011;67232;50.096;8.716;2024-03-02T05:53:19;3.75;;;0.10;;
75160;SDS011;67232;50.096;8.716;2024-03-02T05:55:45;4.63;;;0.28;;
75160;SDS011;67232;50.096;8.716;2024-03-02T05:58:12;4.78;;;0.17;;
75160;SDS011;67232;50.096;8.716;2024-03-02T06:00:52;3.85;;;0.13;;
75160;SDS011;67232;50.096;8.716;2024-03-02T06:03:19;3.97;;;0.17;;
75160;SDS011;67232;50.096;8.716;2024-03-02T06:05:45;3.95;;;0.00;;
75160;SDS011;67232;50.096;8.716;2024-03-02T06:08:14;4.05;;;0.13;;
75160;SDS011;67232;50.096;8.716;2024-03-02T06:10:40;2.92;;;0.10;;
75160;SDS011;67232;50.096;8.716;2024-03-02T06:13:06;3.92;;;0.10;;
75160;SDS011;67232;50.096;8.716;2024-03-02T06:15:34;4.18;;;0.05;;
75160;SDS011;67232;50.096;8.716;2024-03-02T06:18:01;4.70;;;0.20;;
75160;SDS011;67232;50.096;8.716;2024-03-02T06:20:31;4.60;;;0.13;;
75160;SDS011;67232;50.096;8.716;2024-03-02T06:22:57;3.83;;;0.20;;
75160;SDS011;67232;50.096;8.716;2024-03-02T06:25:23;4.10;;;0.13;;
75160;SDS011;67232;50.096;8.716;2024-03-02T06:27:51;5.38;;;0.20;;
75160;SDS011;67232;50.096;8.716;2024-03-02T06:30:17;3.60;;;0.30;;
75160;SDS011;67232;50.096;8.716;2024-03-02T06:32:48;5.07;;;0.25;;
75160;SDS011;67232;50.096;8.716;2024-03-02T06:35:14;6.50;;;0.30;;
75160;SDS011;67232;50.096;8.716;2024-03-02T06:37:40;4.45;;;0.20;;
75160;SDS011;67232;50.096;8.716;2024-03-02T06:40:08;7.05;;;0.60;;
75160;SDS011;67232;50.096;8.716;2024-03-02T06:42:37;7.32;;;0.68;;
75160;SDS011;67232;50.096;8.716;2024-03-02T06:45:03;5.57;;;0.55;;
75160;SDS011;67232;50.096;8.716;2024-03-02T06:47:31;6.97;;;1.00;;
75160;SDS011;67232;50.096;8.716;2024-03-02T06:49:57;10.30;;;0.95;;
75160;SDS011;67232;50.096;8.716;2024-03-02T06:52:24;27.38;;;5.95;;
75160;SDS011;67232;50.096;8.716;2024-03-02T06:54:50;38.20;;;8.23;;
75160;SDS011;67232;50.096;8.716;2024-03-02T06:57:18;19.75;;;3.17;;
75160;SDS011;67232;50.096;8.716;2024-03-02T06:59:45;43.25;;;8.88;;
75160;SDS011;67232;50.096;8.716;2024-03-02T07:02:15;31.33;;;5.82;;
75160;SDS011;67232;50.096;8.716;2024-03-02T07:04:41;20.75;;;3.50;;
75160;SDS011;67232;50.096;8.716;2024-03-02T07:07:07;36.60;;;7.35;;
75160;SDS011;67232;50.096;8.716;2024-03-02T07:09:33;17.85;;;3.15;;
75160;SDS011;67232;50.096;8.716;2024-03-02T07:11:59;20.92;;;3.33;;
75160;SDS011;67232;50.096;8.716;2024-03-02T07:14:25;13.07;;;2.05;;
75160;SDS011;67232;50.096;8.716;2024-03-02T07:17:10;31.83;;;6.75;;
75160;SDS011;67232;50.096;8.716;2024-03-02T07:19:37;13.90;;;1.73;;
75160;SDS011;67232;50.096;8.716;2024-03-02T07:22:07;59.58;;;13.30;;
75160;SDS011;67232;50.096;8.716;2024-03-02T07:24:38;41.83;;;8.32;;
75160;SDS011;67232;50.096;8.716;2024-03-02T07:27:05;13.95;;;1.90;;
75160;SDS011;67232;50.096;8.716;2024-03-02T07:29:33;5.00;;;0.30;;
75160;SDS011;67232;50.096;8.716;2024-03-02T07:32:02;51.88;;;10.75;;
75160;SDS011;67232;50.096;8.716;2024-03-02T07:34:32;28.30;;;5.18;;
75160;SDS011;67232;50.096;8.716;2024-03-02T07:36:58;9.85;;;0.93;;
75160;SDS011;67232;50.096;8.716;2024-03-02T07:39:24;11.25;;;1.10;;
75160;SDS011;67232;50.096;8.716;2024-03-02T07:41:50;5.60;;;0.10;;
75160;SDS011;67232;50.096;8.716;2024-03-02T07:44:17;9.38;;;1.08;;
75160;SDS011;67232;50.096;8.716;2024-03-02T07:46:46;23.23;;;3.63;;
75160;SDS011;67232;50.096;8.716;2024-03-02T07:49:15;37.35;;;7.35;;
75160;SDS011;67232;50.096;8.716;2024-03-02T07:51:43;5.63;;;0.63;;
75160;SDS011;67232;50.096;8.716;2024-03-02T07:54:10;6.07;;;0.30;;
75160;SDS011;67232;50.096;8.716;2024-03-02T07:56:36;5.18;;;0.20;;
75160;SDS011;67232;50.096;8.716;2024-03-02T07:59:02;5.10;;;0.28;;
75160;SDS011;67232;50.096;8.716;2024-03-02T08:01:32;3.92;;;0.10;;
75160;SDS011;67232;50.096;8.716;2024-03-02T08:03:58;3.00;;;0.10;;
75160;SDS011;67232;50.096;8.716;2024-03-02T08:06:28;4.68;;;0.10;;
75160;SDS011;67232;50.096;8.716;2024-03-02T08:08:54;4.05;;;0.03;;
75160;SDS011;67232;50.096;8.716;2024-03-02T08:11:23;6.50;;;0.20;;
75160;SDS011;67232;50.096;8.716;2024-03-02T08:13:52;5.88;;;0.30;;
75160;SDS011;67232;50.096;8.716;2024-03-02T08:16:20;5.68;;;0.20;;
75160;SDS011;67232;50.096;8.716;2024-03-02T08:18:49;5.07;;;0.05;;
75160;SDS011;67232;50.096;8.716;2024-03-02T08:21:18;4.15;;;0.03;;
75160;SDS011;67232;50.096;8.716;2024-03-02T08:23:46;3.13;;;0.25;;
75160;SDS011;67232;50.096;8.716;2024-03-02T08:26:12;4.70;;;0.10;;
75160;SDS011;67232;50.096;8.716;2024-03-02T08:28:41;4.85;;;0.13;;
75160;SDS011;67232;50.096;8.716;2024-03-02T08:31:07;4.05;;;0.20;;
75160;SDS011;67232;50.096;8.716;2024-03-02T08:33:33;4.68;;;0.15;;
75160;SDS011;67232;50.096;8.716;2024-03-02T08:36:00;4.13;;;0.20;;
75160;SDS011;67232;50.096;8.716;2024-03-02T08:38:28;7.88;;;0.20;;
75160;SDS011;67232;50.096;8.716;2024-03-02T08:40:54;5.80;;;0.15;;
75160;SDS011;67232;50.096;8.716;2024-03-02T08:43:23;4.32;;;0.00;;
75160;SDS011;67232;50.096;8.716;2024-03-02T08:45:52;6.85;;;0.25;;
75160;SDS011;67232;50.096;8.716;2024-03-02T08:48:20;4.43;;;0.22;;
75160;SDS011;67232;50.096;8.716;2024-03-02T08:50:48;8.70;;;0.40;;
75160;SDS011;67232;50.096;8.716;2024-03-02T08:53:17;6.93;;;0.43;;
75160;SDS011;67232;50.096;8.716;2024-03-02T08:55:44;5.03;;;0.20;;
75160;SDS011;67232;50.096;8.716;2024-03-02T08:58:10;4.15;;;0.05;;
75160;SDS011;67232;50.096;8.716;2024-03-02T09:00:41;5.50;;;0.20;;
75160;SDS011;67232;50.096;8.716;2024-03-02T09:03:09;3.50;;;0.08;;
75160;SDS011;67232;50.096;8.716;2024-03-02T09:05:35;5.35;;;0.20;;
75160;SDS011;67232;50.096;8.716;2024-03-02T09:08:01;4.53;;;0.25;;
75160;SDS011;67232;50.096;8.716;2024-03-02T09:10:29;4.20;;;0.10;;
75160;SDS011;67232;50.096;8.716;2024-03-02T09:12:55;5.07;;;0.17;;
75160;SDS011;67232;50.096;8.716;2024-03-02T09:15:21;3.60;;;0.22;;
75160;SDS011;67232;50.096;8.716;2024-03-02T09:17:50;4.45;;;0.10;;
75160;SDS011;67232;50.096;8.716;2024-03-02T09:20:16;4.80;;;0.17;;
75160;SDS011;67232;50.096;8.716;2024-03-02T09:22:44;3.25;;;0.03;;
75160;SDS011;67232;50.096;8.716;2024-03-02T09:25:12;4.07;;;0.20;;
75160;SDS011;67232;50.096;8.716;2024-03-02T09:27:38;4.18;;;0.13;;
75160;SDS011;67232;50.096;8.716;2024-03-02T09:32:33;3.38;;;0.00;;
75160;SDS011;67232;50.096;8.716;2024-03-02T09:34:59;4.63;;;0.20;;
75160;SDS011;67232;50.096;8.716;2024-03-02T09:37:25;5.00;;;0.25;;
75160;SDS011;67232;50.096;8.716;2024-03-02T09:42:17;2.88;;;0.00;;
75160;SDS011;67232;50.096;8.716;2024-03-02T09:44:43;4.35;;;0.05;;
75160;SDS011;67232;50.096;8.716;2024-03-02T09:47:09;24.10;;;4.55;;
75160;SDS011;67232;50.096;8.716;2024-03-02T09:49:35;10.18;;;0.80;;
75160;SDS011;67232;50.096;8.716;2024-03-02T09:52:02;6.80;;;0.90;;
75160;SDS011;67232;50.096;8.716;2024-03-02T09:54:28;4.32;;;0.10;;
75160;SDS011;67232;50.096;8.716;2024-03-02T09:56:56;3.63;;;0.00;;
75160;SDS011;67232;50.096;8.716;2024-03-02T09:59:26;3.42;;;0.28;;
75160;SDS011;67232;50.096;8.716;2024-03-02T10:01:59;3.20;;;0.20;;
75160;SDS011;67232;50.096;8.716;2024-03-02T10:04:26;4.68;;;0.05;;
75160;SDS011;67232;50.096;8.716;2024-03-02T10:07:08;3.38;;;0.20;;
75160;SDS011;67232;50.096;8.716;2024-03-02T10:09:36;4.57;;;0.10;;
75160;SDS011;67232;50.096;8.716;2024-03-02T10:12:04;5.53;;;0.20;;
75160;SDS011;67232;50.096;8.716;2024-03-02T10:14:31;5.53;;;0.20;;
75160;SDS011;67232;50.096;8.716;2024-03-02T10:17:04;3.75;;;0.10;;
75160;SDS011;67232;50.096;8.716;2024-03-02T10:19:30;4.55;;;0.10;;
75160;SDS011;67232;50.096;8.716;2024-03-02T10:21:59;4.00;;;0.10;;
75160;SDS011;67232;50.096;8.716;2024-03-02T10:26:54;3.80;;;0.10;;
75160;SDS011;67232;50.096;8.716;2024-03-02T10:29:23;3.20;;;0.13;;
75160;SDS011;67232;50.096;8.716;2024-03-02T10:31:51;3.40;;;0.10;;
75160;SDS011;67232;50.096;8.716;2024-03-02T10:34:21;4.38;;;0.00;;
75160;SDS011;67232;50.096;8.716;2024-03-02T10:36:49;4.30;;;0.10;;
75160;SDS011;67232;50.096;8.716;2024-03-02T10:39:15;3.45;;;0.05;;
75160;SDS011;67232;50.096;8.716;2024-03-02T10:41:42;4.18;;;0.10;;
75160;SDS011;67232;50.096;8.716;2024-03-02T10:44:11;3.78;;;0.05;;
75160;SDS011;67232;50.096;8.716;2024-03-02T10:46:38;6.80;;;0.40;;
75160;SDS011;67232;50.096;8.716;2024-03-02T10:49:06;4.35;;;0.00;;
75160;SDS011;67232;50.096;8.716;2024-03-02T10:51:33;4.32;;;0.28;;
75160;SDS011;67232;50.096;8.716;2024-03-02T10:54:02;9.73;;;1.27;;
75160;SDS011;67232;50.096;8.716;2024-03-02T10:56:36;5.35;;;0.17;;
75160;SDS011;67232;50.096;8.716;2024-03-02T11:01:39;2.75;;;0.00;;
75160;SDS011;67232;50.096;8.716;2024-03-02T11:04:09;3.53;;;0.00;;
75160;SDS011;67232;50.096;8.716;2024-03-02T11:06:35;2.58;;;0.00;;
75160;SDS011;67232;50.096;8.716;2024-03-02T11:09:06;4.00;;;0.13;;
75160;SDS011;67232;50.096;8.716;2024-03-02T11:11:40;4.90;;;0.10;;
75160;SDS011;67232;50.096;8.716;2024-03-02T11:14:10;3.90;;;0.00;;
75160;SDS011;67232;50.096;8.716;2024-03-02T11:16:39;3.20;;;0.00;;
75160;SDS011;67232;50.096;8.716;2024-03-02T11:19:07;3.10;;;0.00;;
75160;SDS011;67232;50.096;8.716;2024-03-02T11:21:34;2.20;;;0.00;;
75160;SDS011;67232;50.096;8.716;2024-03-02T11:26:51;2.63;;;0.00;;
75160;SDS011;67232;50.096;8.716;2024-03-02T11:32:05;6.03;;;0.00;;
75160;SDS011;67232;50.096;8.716;2024-03-02T11:34:34;2.97;;;0.00;;
75160;SDS011;67232;50.096;8.716;2024-03-02T11:37:03;2.38;;;0.00;;
75160;SDS011;67232;50.096;8.716;2024-03-02T11:39:29;3.83;;;0.10;;
75160;SDS011;67232;50.096;8.716;2024-03-02T11:41:58;3.05;;;0.00;;
75160;SDS011;67232;50.096;8.716;2024-03-02T11:44:27;2.53;;;0.00;;
75160;SDS011;67232;50.096;8.716;2024-03-02T11:47:05;2.38;;;0.00;;
75160;SDS011;67232;50.096;8.716;2024-03-02T11:49:39;2.78;;;0.00;;
75160;SDS011;67232;50.096;8.716;2024-03-02T11:52:13;1.50;;;0.00;;
75160;SDS011;67232;50.096;8.716;2024-03-02T11:54:49;3.03;;;0.00;;
75160;SDS011;67232;50.096;8.716;2024-03-02T11:57:19;3.47;;;0.00;;
75160;SDS011;67232;50.096;8.716;2024-03-02T11:59:50;4.65;;;0.08;;
75160;SDS011;67232;50.096;8.716;2024-03-02T12:02:16;2.45;;;0.00;;
75160;SDS011;67232;50.096;8.716;2024-03-02T12:04:43;2.15;;;0.00;;
75160;SDS011;67232;50.096;8.716;2024-03-02T12:07:10;2.78;;;0.00;;
75160;SDS011;67232;50.096;8.716;2024-03-02T12:09:38;2.58;;;0.00;;
75160;SDS011;67232;50.096;8.716;2024-03-02T12:12:07;2.55;;;0.00;;
75160;SDS011;67232;50.096;8.716;2024-03-02T12:14:34;2.63;;;0.00;;
75160;SDS011;67232;50.096;8.716;2024-03-02T12:17:01;1.98;;;0.00;;
75160;SDS011;67232;50.096;8.716;2024-03-02T12:19:27;1.83;;;0.00;;
75160;SDS011;67232;50.096;8.716;2024-03-02T12:21:55;1.85;;;0.00;;
75160;SDS011;67232;50.096;8.716;2024-03-02T12:24:21;1.35;;;0.00;;
75160;SDS011;67232;50.096;8.716;2024-03-02T12:26:47;1.95;;;0.00;;
75160;SDS011;67232;50.096;8.716;2024-03-02T12:29:14;1.33;;;0.00;;
75160;SDS011;67232;50.096;8.716;2024-03-02T12:31:42;1.45;;;0.00;;
75160;SDS011;67232;50.096;8.716;2024-03-02T12:34:11;3.38;;;0.00;;
75160;SDS011;67232;50.096;8.716;2024-03-02T12:36:38;1.48;;;0.00;;
75160;SDS011;67232;50.096;8.716;2024-03-02T12:39:04;2.17;;;0.00;;
75160;SDS011;67232;50.096;8.716;2024-03-02T12:41:30;2.08;;;0.00;;
75160;SDS011;67232;50.096;8.716;2024-03-02T12:43:56;2.90;;;0.00;;
75160;SDS011;67232;50.096;8.716;2024-03-02T12:46:22;2.45;;;0.00;;
75160;SDS011;67232;50.096;8.716;2024-03-02T12:48:51;1.75;;;0.00;;
75160;SDS011;67232;50.096;8.716;2024-03-02T12:51:19;1.30;;;0.00;;
75160;SDS011;67232;50.096;8.716;2024-03-02T12:53:57;2.10;;;0.00;;
75160;SDS011;67232;50.096;8.716;2024-03-02T12:56:24;1.90;;;0.00;;
75160;SDS011;67232;50.096;8.716;2024-03-02T12:58:56;2.70;;;0.00;;
75160;SDS011;67232;50.096;8.716;2024-03-02T13:01:23;1.63;;;0.00;;
75160;SDS011;67232;50.096;8.716;2024-03-02T13:03:49;1.50;;;0.00;;
75160;SDS011;67232;50.096;8.716;2024-03-02T13:06:16;1.55;;;0.00;;
75160;SDS011;67232;50.096;8.716;2024-03-02T13:08:42;0.60;;;0.00;;
75160;SDS011;67232;50.096;8.716;2024-03-02T13:11:11;1.27;;;0.00;;
75160;SDS011;67232;50.096;8.716;2024-03-02T13:13:39;1.63;;;0.00;;
75160;SDS011;67232;50.096;8.716;2024-03-02T13:16:09;1.95;;;0.00;;
75160;SDS011;67232;50.096;8.716;2024-03-02T13:18:35;0.55;;;0.00;;
75160;SDS011;67232;50.096;8.716;2024-03-02T13:21:03;0.93;;;0.00;;
75160;SDS011;67232;50.096;8.716;2024-03-02T13:23:29;1.67;;;0.00;;
75160;SDS011;67232;50.096;8.716;2024-03-02T13:25:56;2.92;;;0.00;;
75160;SDS011;67232;50.096;8.716;2024-03-02T13:28:23;0.60;;;0.00;;
75160;SDS011;67232;50.096;8.716;2024-03-02T13:30:51;1.63;;;0.00;;
75160;SDS011;67232;50.096;8.716;2024-03-02T13:33:17;0.93;;;0.00;;
75160;SDS011;67232;50.096;8.716;2024-03-02T13:35:47;3.50;;;0.00;;
75160;SDS011;67232;50.096;8.716;2024-03-02T13:38:13;2.33;;;0.08;;
75160;SDS011;67232;50.096;8.716;2024-03-02T13:40:42;4.30;;;0.00;;
75160;SDS011;67232;50.096;8.716;2024-03-02T13:43:08;1.10;;;0.00;;
75160;SDS011;67232;50.096;8.716;2024-03-02T13:45:37;1.38;;;0.00;;
75160;SDS011;67232;50.096;8.716;2024-03-02T13:48:03;2.05;;;0.00;;
75160;SDS011;67232;50.096;8.716;2024-03-02T13:50:29;1.55;;;0.00;;
75160;SDS011;67232;50.096;8.716;2024-03-02T13:52:55;0.77;;;0.00;;
75160;SDS011;67232;50.096;8.716;2024-03-02T13:55:21;1.80;;;0.00;;
75160;SDS011;67232;50.096;8.716;2024-03-02T13:57:50;2.58;;;0.00;;
75160;SDS011;67232;50.096;8.716;2024-03-02T14:00:17;1.00;;;0.00;;
75160;SDS011;67232;50.096;8.716;2024-03-02T14:02:43;0.82;;;0.00;;
75160;SDS011;67232;50.096;8.716;2024-03-02T14:05:11;1.05;;;0.00;;
75160;SDS011;67232;50.096;8.716;2024-03-02T14:07:39;1.85;;;0.00;;
75160;SDS011;67232;50.096;8.716;2024-03-02T14:10:06;1.35;;;0.00;;
75160;SDS011;67232;50.096;8.716;2024-03-02T14:12:32;0.93;;;0.00;;
75160;SDS011;67232;50.096;8.716;2024-03-02T14:15:00;1.15;;;0.00;;
75160;SDS011;67232;50.096;8.716;2024-03-02T14:17:29;2.97;;;0.00;;
75160;SDS011;67232;50.096;8.716;2024-03-02T14:19:58;0.60;;;0.00;;
75160;SDS011;67232;50.096;8.716;2024-03-02T14:22:27;1.33;;;0.00;;
75160;SDS011;67232;50.096;8.716;2024-03-02T14:24:55;0.85;;;0.00;;
75160;SDS011;67232;50.096;8.716;2024-03-02T14:27:22;1.15;;;0.00;;
75160;SDS011;67232;50.096;8.716;2024-03-02T14:29:48;0.73;;;0.00;;
75160;SDS011;67232;50.096;8.716;2024-03-02T14:32:14;1.23;;;0.00;;
75160;SDS011;67232;50.096;8.716;2024-03-02T14:37:11;0.73;;;0.00;;
75160;SDS011;67232;50.096;8.716;2024-03-02T14:39:37;0.98;;;0.00;;
75160;SDS011;67232;50.096;8.716;2024-03-02T14:42:04;1.77;;;0.00;;
75160;SDS011;67232;50.096;8.716;2024-03-02T14:44:33;3.00;;;0.00;;
75160;SDS011;67232;50.096;8.716;2024-03-02T14:46:59;2.08;;;0.03;;
75160;SDS011;67232;50.096;8.716;2024-03-02T14:49:25;2.15;;;0.00;;
75160;SDS011;67232;50.096;8.716;2024-03-02T14:54:18;1.40;;;0.00;;
75160;SDS011;67232;50.096;8.716;2024-03-02T14:56:46;0.35;;;0.00;;
75160;SDS011;67232;50.096;8.716;2024-03-02T14:59:12;1.10;;;0.00;;
75160;SDS011;67232;50.096;8.716;2024-03-02T15:01:38;1.17;;;0.00;;
75160;SDS011;67232;50.096;8.716;2024-03-02T15:04:04;1.13;;;0.00;;
75160;SDS011;67232;50.096;8.716;2024-03-02T15:06:32;1.63;;;0.00;;
75160;SDS011;67232;50.096;8.716;2024-03-02T15:11:29;0.57;;;0.00;;
75160;SDS011;67232;50.096;8.716;2024-03-02T15:13:55;1.10;;;0.00;;
75160;SDS011;67232;50.096;8.716;2024-03-02T15:16:21;0.52;;;0.00;;
75160;SDS011;67232;50.096;8.716;2024-03-02T15:18:49;1.35;;;0.00;;
75160;SDS011;67232;50.096;8.716;2024-03-02T15:21:16;0.88;;;0.00;;
75160;SDS011;67232;50.096;8.716;2024-03-02T15:23:44;0.63;;;0.00;;
75160;SDS011;67232;50.096;8.716;2024-03-02T15:26:10;0.93;;;0.00;;
75160;SDS011;67232;50.096;8.716;2024-03-02T15:28:37;1.58;;;0.00;;
75160;SDS011;67232;50.096;8.716;2024-03-02T15:31:03;0.85;;;0.00;;
75160;SDS011;67232;50.096;8.716;2024-03-02T15:33:29;0.90;;;0.00;;